Time;durP1;ratioP1;P1;durP2;ratioP2;P2;SDS_P1;SDS_P2;PMS_P1;PMS_P2;Temp;Humidity;BMP_temperature;BMP_pressure;BME280_temperature;BME280_humidity;BME280_pressure;Samples;Min_cycle;Max_cycle;Signal;HPM_P1;HPM_P2
2022/06/04 00:01:47;;;;;;;12.63;9.33;;;14.20;99.90;;;;;;5035286;28;20663;-68
2022/06/04 00:04:16;;;;;;;10.63;8.87;;;14.20;99.90;;;;;;5035034;28;20198;-65
2022/06/04 00:06:44;;;;;;;14.93;9.50;;;14.20;99.90;;;;;;5035430;28;20290;-64
2022/06/04 00:09:12;;;;;;;15.77;9.93;;;14.20;99.90;;;;;;5034837;28;20200;-65
2022/06/04 00:17:26;;;;;;;11.40;9.27;;;14.10;99.90;;;;;;4994270;28;20294;-65
2022/06/04 00:19:53;;;;;;;12.77;9.57;;;14.00;99.90;;;;;;4977759;28;20216;-64
2022/06/04 00:22:20;;;;;;;14.03;9.67;;;13.90;99.90;;;;;;4978128;28;20261;-75
2022/06/04 00:24:47;;;;;;;12.97;9.10;;;13.90;99.90;;;;;;4994202;28;20632;-66
2022/06/04 00:27:17;;;;;;;13.40;9.43;;;13.90;99.90;;;;;;4977782;28;20716;-69
2022/06/04 00:29:44;;;;;;;11.70;9.40;;;13.90;99.90;;;;;;4994534;28;20299;-64
2022/06/04 00:32:14;;;;;;;16.30;9.53;;;13.80;99.90;;;;;;4977968;28;20624;-76
2022/06/04 00:34:41;;;;;;;13.73;9.73;;;13.80;99.90;;;;;;4977577;28;20644;-64
2022/06/04 00:37:08;;;;;;;13.10;8.87;;;13.80;99.90;;;;;;4977803;28;20215;-66
2022/06/04 00:39:35;;;;;;;12.67;8.80;;;13.80;99.90;;;;;;4994365;28;20255;-75
2022/06/04 00:42:09;;;;;;;11.20;8.73;;;13.80;99.90;;;;;;4993950;28;20207;-77
2022/06/04 00:45:10;;;;;;;10.40;8.10;;;13.80;99.90;;;;;;4977682;28;20214;-65
2022/06/04 00:47:37;;;;;;;10.80;7.93;;;13.80;99.90;;;;;;4993846;28;20235;-80
2022/06/04 00:50:05;;;;;;;10.33;7.33;;;13.80;99.90;;;;;;4977531;28;20288;-72
2022/06/04 00:52:33;;;;;;;9.27;7.10;;;13.80;99.90;;;;;;4991306;28;20308;-65
2022/06/04 00:55:02;;;;;;;9.23;7.30;;;13.80;99.90;;;;;;5033725;28;20298;-65
2022/06/04 00:57:29;;;;;;;8.57;7.30;;;13.80;99.90;;;;;;5033695;28;20204;-64
2022/06/04 01:00:10;;;;;;;8.20;7.07;;;13.90;99.90;;;;;;5034534;28;20194;-65
2022/06/04 01:03:01;;;;;;;11.63;7.60;;;13.90;99.90;;;;;;5034040;28;20235;-64
2022/06/04 01:06:01;;;;;;;11.20;7.47;;;13.90;99.90;;;;;;5033777;28;20651;-64
2022/06/04 01:08:50;;;;;;;13.30;8.13;;;13.90;99.90;;;;;;5033671;28;20307;-74
2022/06/04 01:11:17;;;;;;;11.00;7.40;;;13.90;99.90;;;;;;5034987;28;20218;-74
2022/06/04 01:13:56;;;;;;;10.73;7.60;;;14.00;99.90;;;;;;5033533;28;20254;-65
2022/06/04 01:16:43;;;;;;;11.37;7.70;;;13.90;99.90;;;;;;5033306;28;20210;-66
2022/06/04 01:19:52;;;;;;;9.87;7.20;;;13.80;99.90;;;;;;5033921;28;20298;-74
2022/06/04 01:22:52;;;;;;;8.47;7.07;;;13.80;99.90;;;;;;5033449;28;20216;-64
2022/06/04 01:25:30;;;;;;;9.57;7.00;;;13.80;99.90;;;;;;5033257;28;20215;-65
2022/06/04 01:28:05;;;;;;;9.70;7.13;;;13.80;99.90;;;;;;5033422;28;20238;-65
2022/06/04 01:30:39;;;;;;;9.60;6.97;;;13.80;99.90;;;;;;5033389;28;20373;-65
2022/06/04 01:33:12;;;;;;;10.03;7.27;;;13.80;99.90;;;;;;5034372;28;20249;-62
2022/06/04 01:35:54;;;;;;;8.33;6.80;;;13.70;99.90;;;;;;5033101;28;20198;-65
2022/06/04 01:38:24;;;;;;;12.33;7.47;;;13.80;99.90;;;;;;5033375;28;20205;-64
2022/06/04 01:41:05;;;;;;;13.23;8.17;;;13.70;99.90;;;;;;5033203;28;20210;-65
2022/06/04 01:43:59;;;;;;;9.37;7.33;;;13.70;99.90;;;;;;5032826;28;20198;-62
2022/06/04 01:46:34;;;;;;;10.63;8.43;;;13.70;99.90;;;;;;5033045;28;20633;-63
2022/06/04 01:49:33;;;;;;;21.33;9.30;;;13.60;99.90;;;;;;5033091;28;20648;-65
2022/06/04 01:52:33;;;;;;;10.80;7.73;;;13.60;99.90;;;;;;5033141;28;20294;-64
2022/06/04 01:55:16;;;;;;;10.77;7.80;;;13.60;99.90;;;;;;5032226;28;20199;-63
2022/06/04 01:58:08;;;;;;;10.77;7.80;;;13.60;99.90;;;;;;5032811;28;20196;-64
2022/06/04 02:00:42;;;;;;;10.67;7.87;;;13.50;99.90;;;;;;5032930;28;20284;-66
2022/06/04 02:03:14;;;;;;;9.67;7.00;;;13.50;99.90;;;;;;5032859;28;20648;-63
2022/06/04 02:05:51;;;;;;;8.60;6.77;;;13.50;99.90;;;;;;5032694;28;20537;-65
2022/06/04 02:08:34;;;;;;;8.67;6.93;;;13.40;99.90;;;;;;5032601;28;20698;-64
2022/06/04 02:11:12;;;;;;;7.50;6.33;;;13.40;99.90;;;;;;5032359;28;20200;-67
2022/06/04 02:13:40;;;;;;;10.40;6.83;;;13.40;99.90;;;;;;5032310;28;20227;-65
2022/06/04 02:16:20;;;;;;;7.30;6.37;;;13.40;99.90;;;;;;5032493;28;20206;-65
2022/06/04 02:18:49;;;;;;;8.80;7.27;;;13.40;99.90;;;;;;5033571;28;20207;-65
2022/06/04 02:21:18;;;;;;;11.87;7.57;;;13.40;99.90;;;;;;5015897;28;20325;-65
2022/06/04 02:23:47;;;;;;;10.17;8.23;;;13.30;99.90;;;;;;5033436;28;20777;-66
2022/06/04 02:26:16;;;;;;;9.00;7.73;;;13.30;99.90;;;;;;5032143;28;20230;-63
2022/06/04 02:28:44;;;;;;;10.30;7.53;;;13.30;99.90;;;;;;5032189;28;20655;-63
2022/06/04 02:31:29;;;;;;;11.07;8.10;;;13.30;99.90;;;;;;5032157;28;20238;-63
2022/06/04 02:34:31;;;;;;;10.03;7.50;;;13.30;99.90;;;;;;5033225;28;20245;-63
2022/06/04 02:37:21;;;;;;;9.53;7.40;;;13.30;99.90;;;;;;5031849;28;20282;-63
2022/06/04 02:40:33;;;;;;;10.63;7.60;;;13.30;99.90;;;;;;5020208;28;20197;-63
2022/06/04 02:43:09;;;;;;;13.33;7.90;;;13.30;99.90;;;;;;5032326;28;20293;-63
2022/06/04 02:45:41;;;;;;;10.33;7.93;;;13.20;99.90;;;;;;5031881;28;20198;-67
2022/06/04 02:48:26;;;;;;;11.07;7.70;;;13.30;99.90;;;;;;5032074;28;20294;-73
2022/06/04 02:51:01;;;;;;;9.57;7.97;;;13.30;99.90;;;;;;5031809;28;20712;-64
2022/06/04 02:53:32;;;;;;;10.20;7.90;;;13.30;99.90;;;;;;5033134;28;20249;-69
2022/06/04 02:56:10;;;;;;;8.90;7.33;;;13.30;99.90;;;;;;5031945;28;20281;-71
2022/06/04 02:58:40;;;;;;;8.77;7.13;;;13.30;99.90;;;;;;5031695;28;20259;-63
2022/06/04 03:01:09;;;;;;;8.60;6.80;;;13.40;99.90;;;;;;5033309;28;20210;-64
2022/06/04 03:03:38;;;;;;;8.13;6.87;;;13.40;99.90;;;;;;5031850;28;20196;-65
2022/06/04 03:06:19;;;;;;;9.27;6.17;;;13.40;99.90;;;;;;5033335;28;20196;-64
2022/06/04 03:08:48;;;;;;;8.70;7.07;;;13.50;99.90;;;;;;5033225;28;20202;-68
2022/06/04 03:11:18;;;;;;;7.17;5.77;;;13.60;99.90;;;;;;5031624;28;20200;-64
2022/06/04 03:13:51;;;;;;;8.37;6.43;;;13.60;99.90;;;;;;5031775;28;20538;-64
2022/06/04 03:16:19;;;;;;;7.70;6.50;;;13.60;99.90;;;;;;5031660;28;20602;-64
2022/06/04 03:18:49;;;;;;;8.97;6.30;;;13.60;99.90;;;;;;5031824;28;20254;-64
2022/06/04 03:21:19;;;;;;;9.37;6.60;;;13.70;99.90;;;;;;5033251;28;20244;-63
2022/06/04 03:23:46;;;;;;;7.80;6.10;;;13.70;99.90;;;;;;5038030;28;20652;-69
2022/06/04 03:26:13;;;;;;;8.93;6.10;;;13.80;99.90;;;;;;5021319;28;20218;-64
2022/06/04 03:28:40;;;;;;;9.77;5.90;;;13.90;99.90;;;;;;5038121;28;20703;-63
2022/06/04 03:31:07;;;;;;;7.67;5.70;;;13.90;99.90;;;;;;5037901;28;20567;-63
2022/06/04 03:33:34;;;;;;;6.47;5.77;;;14.00;99.90;;;;;;5038703;28;20257;-64
2022/06/04 03:36:01;;;;;;;6.47;5.63;;;14.10;99.90;;;;;;5037864;28;20226;-63
2022/06/04 03:38:27;;;;;;;7.83;6.20;;;14.10;99.90;;;;;;5039224;28;20214;-70
2022/06/04 03:40:54;;;;;;;6.60;5.90;;;14.10;99.90;;;;;;5038016;28;20292;-77
2022/06/04 03:43:21;;;;;;;8.27;5.77;;;14.20;99.90;;;;;;5037917;28;20656;-63
2022/06/04 03:45:48;;;;;;;6.53;5.60;;;14.20;99.90;;;;;;5038917;28;20191;-64
2022/06/04 03:48:15;;;;;;;6.83;5.50;;;14.30;99.90;;;;;;5038291;28;20200;-64
2022/06/04 03:50:42;;;;;;;6.50;5.50;;;14.30;99.90;;;;;;5037964;28;20226;-63
2022/06/04 03:53:09;;;;;;;8.00;5.90;;;14.40;99.90;;;;;;5038043;28;20221;-65
2022/06/04 03:55:36;;;;;;;6.70;5.70;;;14.40;99.90;;;;;;5037966;28;20700;-67
2022/06/04 03:58:03;;;;;;;7.67;6.00;;;14.50;99.90;;;;;;5037601;28;20301;-71
2022/06/04 04:00:33;;;;;;;7.53;5.77;;;14.50;99.90;;;;;;5037577;28;20306;-64
2022/06/04 04:03:13;;;;;;;10.53;5.80;;;14.50;99.90;;;;;;5037409;28;20199;-64
2022/06/04 04:05:46;;;;;;;8.93;5.67;;;14.60;99.90;;;;;;5037476;28;20206;-63
2022/06/04 04:08:14;;;;;;;7.07;5.70;;;14.60;99.90;;;;;;5039017;28;20300;-67
2022/06/04 04:10:43;;;;;;;8.50;5.40;;;14.70;99.90;;;;;;5039341;28;20568;-70
2022/06/04 04:13:12;;;;;;;9.13;5.93;;;14.80;99.90;;;;;;5037257;28;20198;-73
2022/06/04 04:15:39;;;;;;;6.50;5.87;;;14.90;99.90;;;;;;5037867;28;20199;-79
2022/06/04 04:18:07;;;;;;;6.70;5.43;;;15.10;99.90;;;;;;5037884;28;20553;-70
2022/06/04 04:20:36;;;;;;;7.83;5.70;;;15.20;99.90;;;;;;5037443;28;20362;-66
2022/06/04 04:23:05;;;;;;;6.37;5.47;;;15.40;99.90;;;;;;5038055;28;20295;-66
2022/06/04 04:25:33;;;;;;;6.73;5.33;;;15.50;99.90;;;;;;5037330;28;20605;-79
2022/06/04 04:28:02;;;;;;;6.53;5.20;;;15.60;99.90;;;;;;5037958;28;20254;-69
2022/06/04 04:30:32;;;;;;;7.70;5.60;;;15.80;99.90;;;;;;5038059;28;20218;-63
2022/06/04 04:32:59;;;;;;;7.33;5.40;;;15.80;99.90;;;;;;5035346;28;20299;-63
2022/06/04 04:35:31;;;;;;;7.20;5.90;;;15.90;99.90;;;;;;5034656;28;20286;-63
2022/06/04 04:37:59;;;;;;;9.30;5.90;;;16.00;99.90;;;;;;5035575;28;20217;-64
2022/06/04 04:40:29;;;;;;;6.27;5.63;;;16.00;99.90;;;;;;5034658;28;20552;-64
2022/06/04 04:42:56;;;;;;;9.57;6.50;;;16.10;99.90;;;;;;5035461;28;20191;-68
2022/06/04 04:45:25;;;;;;;9.17;6.17;;;16.10;99.90;;;;;;5034061;28;20618;-75
2022/06/04 04:47:53;;;;;;;6.30;5.70;;;16.20;99.90;;;;;;5034513;28;20265;-64
2022/06/04 04:50:30;;;;;;;6.03;5.17;;;16.20;99.90;;;;;;5034550;28;20638;-68
2022/06/04 04:52:58;;;;;;;6.00;5.00;;;16.30;99.90;;;;;;5033968;28;20695;-64
2022/06/04 04:55:30;;;;;;;6.13;4.93;;;16.40;99.90;;;;;;5033882;28;20644;-64
2022/06/04 04:57:57;;;;;;;5.90;5.17;;;16.50;99.90;;;;;;5033980;28;20199;-64
2022/06/04 05:00:24;;;;;;;6.40;5.20;;;16.60;99.90;;;;;;5034048;28;20223;-64
2022/06/04 05:02:51;;;;;;;6.70;5.10;;;16.70;99.90;;;;;;5033729;28;20389;-64
2022/06/04 05:05:18;;;;;;;9.83;5.23;;;16.70;99.90;;;;;;5034013;28;20310;-63
2022/06/04 05:07:45;;;;;;;7.90;5.30;;;16.80;99.90;;;;;;5033456;28;20282;-63
2022/06/04 05:10:13;;;;;;;7.57;5.47;;;16.80;99.90;;;;;;5033824;28;20209;-63
2022/06/04 05:12:40;;;;;;;6.00;5.40;;;16.90;99.90;;;;;;5017388;28;20223;-63
2022/06/04 05:15:08;;;;;;;7.30;5.57;;;16.90;99.90;;;;;;5034963;28;20298;-63
2022/06/04 05:17:35;;;;;;;5.93;5.07;;;17.00;99.90;;;;;;5035318;28;20199;-64
2022/06/04 05:20:03;;;;;;;6.00;5.30;;;16.90;99.90;;;;;;5033550;28;20238;-63
2022/06/04 05:22:30;;;;;;;7.77;5.27;;;16.90;99.90;;;;;;5034644;28;20282;-63
2022/06/04 05:24:57;;;;;;;6.43;5.63;;;16.90;99.90;;;;;;5033577;28;20290;-64
2022/06/04 05:27:24;;;;;;;11.40;5.57;;;17.00;99.90;;;;;;5033222;28;20329;-66
2022/06/04 05:29:51;;;;;;;5.93;5.37;;;17.00;99.90;;;;;;5033402;28;20215;-65
2022/06/04 05:32:17;;;;;;;7.10;5.50;;;17.00;99.90;;;;;;5033447;28;20302;-63
2022/06/04 05:34:44;;;;;;;9.13;5.40;;;17.10;99.90;;;;;;5033027;28;20277;-63
2022/06/04 05:37:11;;;;;;;7.97;5.70;;;17.00;99.90;;;;;;5034280;28;20278;-63
2022/06/04 05:39:39;;;;;;;5.53;4.90;;;17.10;99.90;;;;;;5033725;28;20295;-64
2022/06/04 05:42:06;;;;;;;6.10;5.13;;;17.10;99.90;;;;;;5034515;28;20202;-63
2022/06/04 05:44:33;;;;;;;5.97;5.40;;;17.30;99.90;;;;;;5032717;28;20594;-68
2022/06/04 05:47:00;;;;;;;6.10;5.50;;;17.40;99.90;;;;;;5033034;28;20200;-63
2022/06/04 05:49:27;;;;;;;6.77;4.93;;;17.50;99.90;;;;;;5033147;28;20290;-64
2022/06/04 05:51:54;;;;;;;6.23;5.00;;;17.70;99.90;;;;;;5032803;28;20207;-63
2022/06/04 05:54:21;;;;;;;5.77;5.20;;;17.80;99.90;;;;;;5032749;28;20226;-63
2022/06/04 05:56:50;;;;;;;6.40;4.93;;;18.00;99.90;;;;;;5033006;28;20192;-69
2022/06/04 05:59:20;;;;;;;7.17;5.27;;;18.10;99.90;;;;;;5032751;28;20269;-63
2022/06/04 06:01:48;;;;;;;5.37;4.77;;;18.20;99.90;;;;;;5032975;28;20218;-63
2022/06/04 06:04:17;;;;;;;5.50;4.90;;;18.30;99.90;;;;;;5033720;28;20653;-65
2022/06/04 06:06:47;;;;;;;7.80;5.37;;;18.40;99.90;;;;;;5033024;28;20196;-74
2022/06/04 06:09:17;;;;;;;7.23;5.20;;;18.50;99.90;;;;;;5032686;28;20204;-67
2022/06/04 06:11:45;;;;;;;11.40;5.10;;;18.60;99.90;;;;;;5032762;28;20290;-69
2022/06/04 06:14:12;;;;;;;13.37;5.77;;;18.70;99.90;;;;;;5032669;28;20216;-73
2022/06/04 06:16:42;;;;;;;6.93;5.70;;;18.80;99.90;;;;;;5032369;28;20209;-67
2022/06/04 06:19:10;;;;;;;6.17;5.23;;;18.80;99.90;;;;;;5032325;28;20294;-66
2022/06/04 06:21:37;;;;;;;13.30;6.40;;;18.90;99.90;;;;;;5032409;28;20223;-65
2022/06/04 06:24:08;;;;;;;7.33;5.90;;;19.00;99.90;;;;;;5032771;28;20302;-65
2022/06/04 06:26:42;;;;;;;7.20;5.40;;;19.00;99.90;;;;;;5032082;28;20583;-64
2022/06/04 06:29:09;;;;;;;6.50;5.73;;;19.10;99.90;;;;;;5032472;28;20257;-74
2022/06/04 06:31:36;;;;;;;6.10;5.30;;;19.20;99.90;;;;;;5033885;28;20257;-80
2022/06/04 06:34:03;;;;;;;7.43;5.70;;;19.30;99.90;;;;;;5033612;28;20255;-79
2022/06/04 06:36:30;;;;;;;5.73;5.13;;;19.50;99.90;;;;;;5032860;28;20230;-79
2022/06/04 06:38:57;;;;;;;7.40;5.80;;;19.60;99.90;;;;;;5032353;28;20203;-80
2022/06/04 06:41:25;;;;;;;7.60;5.20;;;19.80;99.90;;;;;;5032633;28;20294;-82
2022/06/04 06:43:54;;;;;;;7.37;6.07;;;19.80;99.90;;;;;;5032318;28;20195;-67
2022/06/04 06:46:32;;;;;;;5.90;5.30;;;19.90;99.90;;;;;;5032075;28;20249;-65
2022/06/04 06:49:06;;;;;;;6.43;5.67;;;20.10;99.90;;;;;;5031775;28;20236;-66
2022/06/04 06:51:36;;;;;;;6.17;5.47;;;20.10;99.90;;;;;;5032185;28;20206;-65
2022/06/04 06:54:04;;;;;;;8.87;6.23;;;20.30;99.90;;;;;;5031849;28;20727;-65
2022/06/04 06:56:34;;;;;;;8.50;6.10;;;20.50;99.90;;;;;;5030962;28;20205;-65
2022/06/04 06:59:03;;;;;;;8.40;5.63;;;20.60;99.90;;;;;;5031884;28;20214;-66
2022/06/04 07:01:31;;;;;;;8.37;6.10;;;20.80;99.90;;;;;;5031597;28;20627;-66
2022/06/04 07:03:59;;;;;;;8.00;5.87;;;20.90;99.90;;;;;;5031159;28;20226;-65
2022/06/04 07:06:36;;;;;;;7.57;5.80;;;21.00;99.90;;;;;;5032619;28;20200;-65
2022/06/04 07:09:06;;;;;;;9.67;5.60;;;21.10;99.90;;;;;;5031106;28;20198;-65
2022/06/04 07:11:33;;;;;;;10.37;5.60;;;21.20;99.90;;;;;;5032443;28;20219;-65
2022/06/04 07:14:01;;;;;;;6.77;6.07;;;21.50;99.90;;;;;;5031337;28;20215;-68
2022/06/04 07:16:28;;;;;;;7.53;5.50;;;21.60;99.90;;;;;;5031442;28;20280;-66
2022/06/04 07:18:55;;;;;;;7.47;5.80;;;21.80;99.90;;;;;;5031236;28;20191;-65
2022/06/04 07:21:22;;;;;;;6.70;5.40;;;22.00;99.90;;;;;;5031119;28;20322;-65
2022/06/04 07:23:49;;;;;;;8.60;5.80;;;22.20;99.90;;;;;;5031398;28;20286;-65
2022/06/04 07:26:16;;;;;;;8.50;5.70;;;22.50;99.90;;;;;;5031307;28;20219;-65
2022/06/04 07:28:43;;;;;;;7.10;5.83;;;22.80;99.90;;;;;;5014723;28;20294;-65
2022/06/04 07:31:11;;;;;;;8.03;6.00;;;22.90;99.90;;;;;;5032972;28;20371;-65
2022/06/04 07:33:42;;;;;;;6.17;5.50;;;23.00;99.90;;;;;;5031258;28;20295;-66
2022/06/04 07:36:21;;;;;;;8.10;5.97;;;23.10;99.90;;;;;;5031081;28;20219;-65
2022/06/04 07:38:48;;;;;;;7.10;5.63;;;23.20;99.90;;;;;;5031208;28;20266;-65
2022/06/04 07:41:24;;;;;;;8.17;5.63;;;23.10;99.90;;;;;;5031192;28;20207;-76
2022/06/04 07:43:52;;;;;;;6.53;5.80;;;23.30;99.90;;;;;;5031272;28;20215;-67
2022/06/04 07:46:20;;;;;;;8.57;5.90;;;23.40;99.90;;;;;;5031188;28;20199;-65
2022/06/04 07:48:47;;;;;;;7.78;5.68;;;23.60;99.90;;;;;;5031118;28;20191;-66
2022/06/04 07:51:15;;;;;;;7.63;5.83;;;23.80;99.90;;;;;;5031208;28;20286;-65
2022/06/04 07:53:43;;;;;;;8.13;5.80;;;23.90;99.90;;;;;;5031131;28;20200;-66
2022/06/04 07:56:16;;;;;;;6.75;5.70;;;24.10;99.90;;;;;;5030782;28;20246;-67
2022/06/04 07:58:43;;;;;;;8.43;5.78;;;24.10;99.90;;;;;;5030767;28;20290;-74
2022/06/04 08:01:14;;;;;;;7.20;5.60;;;24.40;99.90;;;;;;5031019;28;20199;-76
2022/06/04 08:03:43;;;;;;;6.80;5.50;;;24.50;99.90;;;;;;5031046;28;20200;-66
2022/06/04 08:06:13;;;;;;;7.70;5.50;;;24.70;99.90;;;;;;5030658;28;20203;-66
2022/06/04 08:08:41;;;;;;;6.97;5.50;;;24.90;99.90;;;;;;5033848;28;20273;-68
2022/06/04 08:13:54;;;;;;;7.30;5.60;;;25.20;99.90;;;;;;5034997;28;20214;-72
2022/06/04 08:16:21;;;;;;;12.07;5.95;;;25.40;99.90;;;;;;5034511;28;20238;-69
2022/06/04 08:18:48;;;;;;;6.80;5.63;;;25.40;99.90;;;;;;5035686;28;20190;-68
2022/06/04 08:21:15;;;;;;;6.22;5.63;;;25.20;99.90;;;;;;5034371;28;20259;-69
2022/06/04 08:23:44;;;;;;;7.20;5.50;;;25.10;99.90;;;;;;5034463;28;20278;-73
2022/06/04 08:26:12;;;;;;;6.63;5.32;;;25.10;99.90;;;;;;5017963;28;20191;-67
2022/06/04 08:28:39;;;;;;;7.65;5.38;;;25.10;99.90;;;;;;5034033;28;20290;-73
2022/06/04 08:31:13;;;;;;;7.53;5.38;;;25.00;99.90;;;;;;5034289;28;20693;-69
2022/06/04 08:33:41;;;;;;;9.45;5.30;;;24.90;99.90;;;;;;5034325;28;20204;-65
2022/06/04 08:36:10;;;;;;;7.55;5.30;;;24.80;99.90;;;;;;5034155;28;20266;-64
2022/06/04 08:38:38;;;;;;;6.32;5.30;;;24.80;99.90;;;;;;5034296;28;20203;-64
2022/06/04 08:41:08;;;;;;;8.80;5.50;;;24.70;99.90;;;;;;5034750;28;20298;-65
2022/06/04 08:43:49;;;;;;;8.10;5.45;;;24.60;99.90;;;;;;5034187;28;20654;-64
2022/06/04 08:46:19;;;;;;;6.18;5.55;;;24.50;99.90;;;;;;5035842;28;20274;-64
2022/06/04 08:48:47;;;;;;;6.70;5.53;;;24.30;99.90;;;;;;5034383;28;20200;-65
2022/06/04 08:51:21;;;;;;;6.93;5.65;;;24.10;99.90;;;;;;5035512;28;20634;-65
2022/06/04 08:53:52;;;;;;;6.25;5.55;;;24.00;99.90;;;;;;5034179;28;20231;-65
2022/06/04 08:59:53;;;;;;;7.55;5.63;;;23.80;99.90;;;;;;4958154;28;20291;-65
2022/06/04 09:02:26;;;;;;;6.82;5.70;;;23.70;99.90;;;;;;4958173;28;20288;-72
2022/06/04 09:05:15;;;;;;;8.50;5.95;;;23.60;99.90;;;;;;4957921;28;20194;-66
2022/06/04 09:07:47;;;;;;;6.30;5.30;;;23.40;99.90;;;;;;4958327;28;20301;-65
2022/06/04 09:10:20;;;;;;;7.17;5.40;;;23.30;99.90;;;;;;4958137;28;20205;-79
2022/06/04 09:12:52;;;;;;;6.90;6.03;;;23.30;99.90;;;;;;4958047;28;20296;-65
2022/06/04 09:15:32;;;;;;;9.52;6.10;;;23.30;99.90;;;;;;4957489;28;20770;-70
2022/06/04 09:18:04;;;;;;;6.90;5.80;;;23.20;99.90;;;;;;4957903;28;20209;-66
2022/06/04 09:20:34;;;;;;;7.57;5.60;;;23.10;99.90;;;;;;4956870;28;20668;-66
2022/06/04 09:23:28;;;;;;;7.03;5.97;;;23.20;99.90;;;;;;4958033;28;20248;-69
2022/06/04 09:26:13;;;;;;;15.60;6.47;;;23.10;99.90;;;;;;4950726;28;20244;-66
2022/06/04 09:29:01;;;;;;;6.97;5.80;;;23.10;99.90;;;;;;4973788;28;20229;-66
2022/06/04 09:31:38;;;;;;;9.70;6.20;;;23.00;99.90;;;;;;4958032;28;20216;-67
2022/06/04 09:34:10;;;;;;;7.40;5.90;;;22.80;99.90;;;;;;4973669;28;20237;-67
2022/06/04 09:36:39;;;;;;;8.63;5.83;;;22.60;99.90;;;;;;5017935;28;20258;-65
2022/06/04 09:39:19;;;;;;;8.47;6.10;;;22.40;99.90;;;;;;5033328;28;20221;-66
2022/06/04 09:42:00;;;;;;;7.20;6.10;;;22.20;99.90;;;;;;5033319;28;20253;-66
2022/06/04 09:44:29;;;;;;;7.47;5.80;;;22.30;99.90;;;;;;5034540;28;20207;-67
2022/06/04 09:47:30;;;;;;;7.97;5.67;;;22.20;99.90;;;;;;5034472;28;20198;-66
2022/06/04 09:50:04;;;;;;;7.20;5.70;;;22.00;99.90;;;;;;4957215;28;20300;-65
2022/06/04 09:52:43;;;;;;;9.73;5.67;;;22.20;99.90;;;;;;4957485;28;20232;-65
2022/06/04 09:55:21;;;;;;;8.63;5.93;;;22.20;99.90;;;;;;4956902;28;20225;-70
2022/06/04 09:57:56;;;;;;;7.67;5.73;;;22.10;99.90;;;;;;4957188;28;20285;-67
2022/06/04 10:00:31;;;;;;;7.53;6.20;;;22.00;99.90;;;;;;4973260;28;20600;-67
2022/06/04 10:03:01;;;;;;;10.13;6.53;;;21.80;99.90;;;;;;4957011;28;20232;-67
2022/06/04 10:05:31;;;;;;;9.10;6.57;;;21.70;99.90;;;;;;4956806;28;20241;-67
2022/06/04 10:07:59;;;;;;;7.47;6.50;;;21.50;99.90;;;;;;4973333;28;20209;-66
2022/06/04 10:10:41;;;;;;;7.30;6.40;;;21.40;99.90;;;;;;4973137;28;20197;-66
2022/06/04 10:16:16;;;;;;;9.87;6.67;;;21.30;99.90;;;;;;4956597;28;20225;-66
2022/06/04 10:18:57;;;;;;;8.40;6.73;;;21.20;99.90;;;;;;4972895;28;20344;-67
2022/06/04 10:21:31;;;;;;;7.90;7.00;;;21.00;99.90;;;;;;4972695;28;20243;-67
2022/06/04 10:24:04;;;;;;;12.13;6.90;;;21.00;99.90;;;;;;4956647;28;20218;-68
2022/06/04 10:26:54;;;;;;;9.23;7.60;;;20.90;99.90;;;;;;4982228;28;20263;-66
2022/06/04 10:30:09;;;;;;;13.93;8.33;;;21.00;99.90;;;;;;5032087;28;20310;-66
2022/06/04 10:33:08;;;;;;;13.10;8.07;;;20.80;99.90;;;;;;5025478;28;20227;-66
2022/06/04 10:35:46;;;;;;;12.17;8.90;;;20.80;99.90;;;;;;5032044;28;20227;-67
2022/06/04 10:38:22;;;;;;;11.83;8.70;;;20.60;99.90;;;;;;5032177;28;20199;-66
2022/06/04 10:41:16;;;;;;;13.73;9.03;;;20.60;99.90;;;;;;5032089;28;20198;-68
2022/06/04 10:44:04;;;;;;;11.03;8.47;;;20.60;99.90;;;;;;5031756;28;20200;-66
2022/06/04 10:46:34;;;;;;;11.63;8.80;;;20.60;99.90;;;;;;5032325;28;20657;-65
2022/06/04 10:49:13;;;;;;;11.13;8.53;;;20.70;99.90;;;;;;5032055;28;20290;-66
2022/06/04 10:52:01;;;;;;;10.67;8.70;;;20.80;99.90;;;;;;5031992;28;20291;-73
2022/06/04 10:54:34;;;;;;;13.83;10.03;;;20.70;99.90;;;;;;5033068;28;20199;-77
2022/06/04 10:57:30;;;;;;;14.10;9.57;;;20.70;99.90;;;;;;5031862;28;20692;-80
2022/06/04 11:00:03;;;;;;;11.73;9.63;;;20.50;99.90;;;;;;5031606;28;20290;-81
2022/06/04 11:02:37;;;;;;;15.17;9.70;;;20.40;99.90;;;;;;5031861;28;20635;-79
2022/06/04 11:05:40;;;;;;;15.20;9.10;;;20.40;99.90;;;;;;5031674;28;20218;-79
2022/06/04 11:08:18;;;;;;;13.23;8.90;;;20.40;99.90;;;;;;4956352;28;20591;-79
2022/06/04 11:11:03;;;;;;;11.23;9.13;;;20.70;99.90;;;;;;4972430;28;20769;-78
2022/06/04 11:13:52;;;;;;;10.27;8.67;;;20.80;99.90;;;;;;4955919;28;20205;-74
2022/06/04 11:16:31;;;;;;;9.90;8.80;;;21.10;99.90;;;;;;4955761;28;20237;-69
2022/06/04 11:19:11;;;;;;;10.27;8.83;;;21.10;99.90;;;;;;4971733;28;20205;-65
2022/06/04 11:21:44;;;;;;;11.97;8.83;;;20.80;99.90;;;;;;4955567;28;20237;-65
2022/06/04 11:24:16;;;;;;;12.47;9.27;;;20.70;99.90;;;;;;4971636;28;20201;-65
2022/06/04 11:26:52;;;;;;;13.53;9.30;;;20.70;99.90;;;;;;4955680;28;20325;-64
2022/06/04 11:29:20;;;;;;;14.10;8.80;;;20.70;99.90;;;;;;4971569;28;20280;-65
2022/06/04 11:32:10;;;;;;;11.50;8.77;;;21.00;99.90;;;;;;4971868;28;20205;-65
2022/06/04 11:35:01;;;;;;;10.83;8.20;;;21.30;99.90;;;;;;4971314;28;20212;-65
2022/06/04 11:37:38;;;;;;;11.30;8.40;;;21.70;99.90;;;;;;4971666;28;20205;-66
2022/06/04 11:40:13;;;;;;;12.80;9.30;;;21.90;99.90;;;;;;4971952;28;20300;-66
2022/06/04 11:42:55;;;;;;;10.40;9.00;;;22.00;99.90;;;;;;4962036;28;20686;-67
2022/06/04 11:45:47;;;;;;;12.03;9.00;;;22.00;99.90;;;;;;5035609;28;20568;-66
2022/06/04 11:48:38;;;;;;;11.03;8.47;;;22.10;99.90;;;;;;5018813;28;20265;-66
2022/06/04 11:51:59;;;;;;;12.07;9.50;;;22.20;99.90;;;;;;5035169;28;20214;-66
2022/06/04 11:54:34;;;;;;;13.17;9.90;;;22.10;99.90;;;;;;4959392;28;20205;-67
2022/06/04 11:57:18;;;;;;;13.50;9.53;;;22.30;99.90;;;;;;4975259;28;20307;-66
2022/06/04 11:59:53;;;;;;;12.70;10.43;;;22.40;99.90;;;;;;4959107;28;20205;-70
2022/06/04 12:02:27;;;;;;;14.87;9.90;;;22.50;99.90;;;;;;4975377;28;20688;-81
2022/06/04 12:05:19;;;;;;;12.20;9.37;;;23.00;99.90;;;;;;4975232;28;20541;-79
2022/06/04 12:07:51;;;;;;;14.55;10.38;;;23.70;99.90;;;;;;4975182;28;20612;-77
2022/06/04 12:10:21;;;;;;;12.50;10.82;;;24.30;99.90;;;;;;4975395;28;20368;-80
2022/06/04 12:13:07;;;;;;;14.43;10.23;;;24.40;99.90;;;;;;4959518;28;20292;-79
2022/06/04 12:15:45;;;;;;;13.70;9.60;;;25.30;99.90;;;;;;4959246;28;20805;-66
2022/06/04 12:18:23;;;;;;;13.25;10.35;;;26.40;99.90;;;;;;4958932;28;20639;-66
2022/06/04 12:26:34;;;;;;;12.57;9.75;;;26.70;99.90;;;;;;4958423;28;20316;-68
2022/06/04 12:29:22;;;;;;;11.23;9.27;;;26.60;99.90;;;;;;4958514;28;20205;-67
2022/06/04 12:31:59;;;;;;;12.98;8.63;;;27.00;99.90;;;;;;5034636;28;20290;-67
2022/06/04 12:34:32;;;;;;;12.57;8.98;;;27.80;99.90;;;;;;5034366;28;20230;-66
2022/06/04 12:36:59;;;;;;;14.13;10.00;;;27.90;99.90;;;;;;5034478;28;20231;-66
2022/06/04 12:39:38;;;;;;;13.65;8.95;;;27.80;99.90;;;;;;5034639;28;20206;-66
2022/06/04 12:42:20;;;;;;;13.60;9.77;;;28.30;99.90;;;;;;5034927;28;20209;-67
2022/06/04 12:44:56;;;;;;;15.38;10.65;;;28.80;99.90;;;;;;5034069;28;20320;-66
2022/06/04 12:47:24;;;;;;;11.30;9.60;;;28.20;99.90;;;;;;5034722;28;20289;-66
2022/06/04 12:50:16;;;;;;;11.70;9.45;;;28.10;99.90;;;;;;5034136;28;20310;-67
2022/06/04 12:52:48;;;;;;;11.38;9.25;;;28.50;99.90;;;;;;5034222;28;20572;-66
2022/06/04 12:55:37;;;;;;;11.60;8.90;;;29.00;99.90;;;;;;5032833;28;20286;-68
2022/06/04 12:58:24;;;;;;;13.45;8.95;;;29.20;98.50;;;;;;5034114;28;20647;-67
2022/06/04 13:01:02;;;;;;;10.85;8.32;;;29.60;98.30;;;;;;5034058;28;20199;-67
2022/06/04 13:03:36;;;;;;;9.05;7.40;;;29.90;96.30;;;;;;5034226;28;20203;-65
2022/06/04 13:06:12;;;;;;;8.15;6.85;;;29.70;94.30;;;;;;5034226;28;20195;-67
2022/06/04 13:08:48;;;;;;;7.10;6.40;;;29.80;95.00;;;;;;5034204;28;20282;-67
2022/06/04 13:11:37;;;;;;;9.18;7.50;;;29.50;94.50;;;;;;5035246;28;20195;-66
2022/06/04 13:14:22;;;;;;;8.60;7.03;;;29.70;93.10;;;;;;5033989;28;20257;-67
2022/06/04 13:16:56;;;;;;;9.43;7.32;;;29.60;92.30;;;;;;5033670;28;20752;-67
2022/06/04 13:19:41;;;;;;;8.57;7.05;;;29.70;91.60;;;;;;5033618;28;20202;-67
2022/06/04 13:22:20;;;;;;;9.55;7.00;;;30.00;90.50;;;;;;5033472;28;20259;-71
2022/06/04 13:24:48;;;;;;;9.13;7.18;;;30.20;91.30;;;;;;5033289;28;20195;-67
2022/06/04 13:27:24;;;;;;;8.30;7.50;;;30.40;91.80;;;;;;5034507;28;20226;-68
2022/06/04 13:29:56;;;;;;;8.18;7.20;;;30.70;89.20;;;;;;5033540;28;20289;-66
2022/06/04 13:32:24;;;;;;;9.63;7.10;;;30.80;88.40;;;;;;5033458;28;20295;-66
2022/06/04 13:34:59;;;;;;;8.07;7.22;;;31.00;87.30;;;;;;5033352;28;20717;-66
2022/06/04 13:37:46;;;;;;;9.77;7.00;;;30.80;84.60;;;;;;5033677;28;20219;-67
2022/06/04 13:40:23;;;;;;;8.45;7.53;;;30.30;90.00;;;;;;5033083;28;20687;-67